createdAt,value
2018-06-23T00:00:57.535Z,96199.00
2018-06-23T00:03:28.804Z,96197.00
2018-06-23T00:06:00.113Z,96195.00
2018-06-23T00:08:31.206Z,96194.00
2018-06-23T00:11:02.689Z,96195.00
2018-06-23T00:13:34.088Z,96198.00
2018-06-23T00:16:05.514Z,96194.00
2018-06-23T00:18:36.473Z,96195.00
2018-06-23T00:21:07.620Z,96193.00
2018-06-23T00:23:38.694Z,96192.00
2018-06-23T00:26:14.777Z,96193.00
2018-06-23T00:28:46.382Z,96198.00
2018-06-23T00:31:17.730Z,96192.00
2018-06-23T00:33:48.779Z,96187.00
2018-06-23T00:36:19.960Z,96184.00
2018-06-23T00:38:51.070Z,96184.00
2018-06-23T00:41:22.596Z,96182.00
2018-06-23T00:43:53.717Z,96178.00
2018-06-23T00:46:25.000Z,96183.00
2018-06-23T00:48:56.166Z,96174.00
2018-06-23T00:51:27.694Z,96175.00
2018-06-23T00:53:58.793Z,96168.00
2018-06-23T00:56:30.025Z,96173.00
2018-06-23T00:59:11.672Z,96167.00
2018-06-23T01:01:43.117Z,96172.00
2018-06-23T01:04:14.424Z,96170.00
2018-06-23T01:06:45.798Z,96172.00
2018-06-23T01:09:16.756Z,96176.00
2018-06-23T01:11:47.875Z,96175.00
2018-06-23T01:14:19.034Z,96178.00
2018-06-23T01:16:50.103Z,96181.00
2018-06-23T01:19:21.202Z,96174.00
2018-06-23T01:21:52.277Z,96176.00
2018-06-23T01:24:23.430Z,96180.00
2018-06-23T01:26:54.969Z,96183.00
2018-06-23T01:29:26.170Z,96181.00
2018-06-23T01:31:57.697Z,96179.00
2018-06-23T01:34:28.678Z,96179.00
2018-06-23T01:37:00.059Z,96183.00
2018-06-23T01:39:31.266Z,96181.00
2018-06-23T01:42:02.237Z,96180.00
2018-06-23T01:44:33.377Z,96183.00
2018-06-23T01:47:04.618Z,96176.00
2018-06-23T01:49:35.645Z,96183.00
2018-06-23T01:52:06.726Z,96184.00
2018-06-23T01:54:37.861Z,96185.00
2018-06-23T01:57:09.377Z,96185.00
2018-06-23T01:59:40.394Z,96184.00
2018-06-23T02:02:11.748Z,96184.00
2018-06-23T02:04:42.987Z,96190.00
2018-06-23T02:07:14.453Z,96180.00
2018-06-23T02:09:45.479Z,96185.00
2018-06-23T02:12:16.659Z,96183.00
2018-06-23T02:14:52.744Z,96182.00
2018-06-23T02:17:29.141Z,96174.00
2018-06-23T02:20:05.286Z,96179.00
2018-06-23T02:22:41.533Z,96173.00
2018-06-23T02:25:17.427Z,96166.00
2018-06-23T02:27:53.589Z,96162.00
2018-06-23T02:32:33.717Z,96165.00
2018-06-23T02:35:06.908Z,96153.00
2018-06-23T02:37:39.550Z,96151.00
2018-06-23T02:40:10.782Z,96156.00
2018-06-23T02:42:41.801Z,96152.00
2018-06-23T02:45:12.983Z,96159.00
2018-06-23T02:47:44.124Z,96153.00
2018-06-23T02:50:15.346Z,96154.00
2018-06-23T02:52:46.415Z,96155.00
2018-06-23T02:55:17.483Z,96157.00
2018-06-23T02:57:48.613Z,96158.00
2018-06-23T03:00:19.801Z,96158.00
2018-06-23T03:02:50.977Z,96164.00
2018-06-23T03:05:22.567Z,96161.00
2018-06-23T03:07:53.676Z,96160.00
2018-06-23T03:10:24.925Z,96158.00
2018-06-23T03:12:56.057Z,96157.00
2018-06-23T03:15:27.552Z,96154.00
2018-06-23T03:17:58.736Z,96150.00
2018-06-23T03:20:31.892Z,96152.00
2018-06-23T03:23:03.046Z,96152.00
2018-06-23T03:25:34.297Z,96157.00
2018-06-23T03:28:06.497Z,96155.00
2018-06-23T03:30:38.337Z,96151.00
2018-06-23T03:33:11.041Z,96150.00
2018-06-23T03:35:42.118Z,96150.00
2018-06-23T03:38:13.217Z,96153.00
2018-06-23T03:40:44.891Z,96152.00
2018-06-23T03:43:16.010Z,96155.00
2018-06-23T03:45:49.358Z,96154.00
2018-06-23T03:48:20.558Z,96150.00
2018-06-23T03:50:51.913Z,96152.00
2018-06-23T03:53:23.105Z,96148.00
2018-06-23T03:55:54.210Z,96148.00
2018-06-23T03:58:25.334Z,96152.00
2018-06-23T04:00:56.883Z,96153.00
2018-06-23T04:03:28.655Z,96150.00
2018-06-23T04:06:00.152Z,96152.00
2018-06-23T04:08:31.392Z,96151.00
2018-06-23T04:11:02.802Z,96148.00
2018-06-23T04:13:34.218Z,96151.00
2018-06-23T04:16:05.482Z,96152.00
2018-06-23T04:18:36.519Z,96149.00
2018-06-23T04:21:07.862Z,96153.00
2018-06-23T04:23:38.973Z,96153.00
2018-06-23T04:26:10.115Z,96151.00
2018-06-23T04:28:41.157Z,96143.00
2018-06-23T04:31:12.353Z,96142.00
2018-06-23T04:33:44.000Z,96147.00
2018-06-23T04:36:15.853Z,96148.00
2018-06-23T04:38:47.163Z,96151.00
2018-06-23T04:41:18.630Z,96157.00
2018-06-23T04:43:50.168Z,96152.00
2018-06-23T04:46:21.358Z,96152.00
2018-06-23T04:48:52.356Z,96148.00
2018-06-23T04:51:23.634Z,96155.00
2018-06-23T04:53:54.676Z,96149.00
2018-06-23T04:56:25.909Z,96160.00
2018-06-23T04:58:56.932Z,96163.00
2018-06-23T05:01:28.079Z,96165.00
2018-06-23T05:03:59.336Z,96161.00
2018-06-23T05:06:30.838Z,96163.00
2018-06-23T05:09:01.863Z,96161.00
2018-06-23T05:11:33.569Z,96158.00
2018-06-23T05:14:04.964Z,96163.00
2018-06-23T05:16:36.367Z,96164.00
2018-06-23T05:19:07.171Z,96167.00
2018-06-23T05:21:38.277Z,96167.00
2018-06-23T05:24:09.497Z,96172.00
2018-06-23T05:26:40.680Z,96173.00
2018-06-23T05:29:11.669Z,96177.00
2018-06-23T05:31:42.932Z,96178.00
2018-06-23T05:34:13.860Z,96179.00
2018-06-23T05:36:44.769Z,96179.00
2018-06-23T05:39:15.850Z,96169.00
2018-06-23T05:41:47.359Z,96179.00
2018-06-23T05:44:18.381Z,96179.00
2018-06-23T05:46:49.418Z,96171.00
2018-06-23T05:49:20.468Z,96175.00
2018-06-23T05:51:52.118Z,96173.00
2018-06-23T05:54:23.959Z,96168.00
2018-06-23T05:56:55.140Z,96170.00
2018-06-23T05:59:26.302Z,96171.00
2018-06-23T06:01:57.418Z,96174.00
2018-06-23T06:04:28.589Z,96175.00
2018-06-23T06:07:00.415Z,96174.00
2018-06-23T06:09:31.626Z,96179.00
2018-06-23T06:12:02.997Z,96173.00
2018-06-23T06:14:34.243Z,96174.00
2018-06-23T06:17:25.386Z,96178.00
2018-06-23T06:19:57.591Z,96182.00
2018-06-23T06:22:29.872Z,96180.00
2018-06-23T06:25:01.017Z,96182.00
2018-06-23T06:27:32.317Z,96175.00
2018-06-23T06:30:03.499Z,96170.00
2018-06-23T06:32:34.667Z,96162.00
2018-06-23T06:35:06.285Z,96167.00
2018-06-23T06:37:38.046Z,96162.00
2018-06-23T06:40:09.369Z,96158.00
2018-06-23T06:42:40.841Z,96147.00
2018-06-23T06:45:11.984Z,96155.00
2018-06-23T06:47:44.256Z,96163.00
2018-06-23T06:50:15.326Z,96141.00
2018-06-23T06:52:46.744Z,96149.00
2018-06-23T06:55:17.907Z,96151.00
2018-06-23T06:57:49.257Z,96159.00
2018-06-23T07:00:20.277Z,96159.00
2018-06-23T07:02:51.642Z,96157.00
2018-06-23T07:05:22.690Z,96158.00
2018-06-23T07:07:53.863Z,96159.00
2018-06-23T07:10:25.146Z,96152.00
2018-06-23T07:12:56.205Z,96150.00
2018-06-23T07:15:27.498Z,96149.00
2018-06-23T07:17:58.678Z,96144.00
2018-06-23T07:20:29.658Z,96140.00
2018-06-23T07:23:01.145Z,96138.00
2018-06-23T07:25:32.436Z,96132.00
2018-06-23T07:28:03.710Z,96134.00
2018-06-23T07:30:34.846Z,96134.00
2018-06-23T07:33:06.415Z,96141.00
2018-06-23T07:35:37.646Z,96154.00
2018-06-23T07:38:08.827Z,96146.00
2018-06-23T07:40:39.933Z,96141.00
2018-06-23T07:43:11.092Z,96146.00
2018-06-23T07:45:42.365Z,96148.00
2018-06-23T07:48:14.056Z,96148.00
2018-06-23T07:50:45.295Z,96144.00
2018-06-23T07:53:17.685Z,96144.00
2018-06-23T07:55:48.884Z,96148.00
2018-06-23T07:58:20.452Z,96149.00
2018-06-23T08:00:51.628Z,96145.00
2018-06-23T08:03:22.872Z,96138.00
2018-06-23T08:05:54.353Z,96138.00
2018-06-23T08:08:25.874Z,96141.00
2018-06-23T08:10:59.238Z,96141.00
2018-06-23T08:13:31.478Z,96138.00
2018-06-23T08:16:03.157Z,96138.00
2018-06-23T08:18:34.865Z,96140.00
2018-06-23T08:21:06.059Z,96145.00
2018-06-23T08:23:37.791Z,96146.00
2018-06-23T08:26:09.276Z,96147.00
2018-06-23T08:28:41.106Z,96143.00
2018-06-23T08:31:12.446Z,96147.00
2018-06-23T08:33:44.123Z,96151.00
2018-06-23T08:36:15.278Z,96151.00
2018-06-23T08:38:46.791Z,96150.00
2018-06-23T08:41:17.959Z,96165.00
2018-06-23T08:43:49.442Z,96165.00
2018-06-23T08:46:20.507Z,96152.00
2018-06-23T08:48:51.505Z,96153.00
2018-06-23T08:51:22.972Z,96154.00
2018-06-23T08:53:54.323Z,96160.00
2018-06-23T08:56:25.437Z,96161.00
2018-06-23T08:58:56.783Z,96172.00
2018-06-23T09:01:27.923Z,96172.00
2018-06-23T09:03:59.010Z,96160.00
2018-06-23T09:06:30.277Z,96160.00
2018-06-23T09:09:05.377Z,96156.00
2018-06-23T09:11:38.719Z,96159.00
2018-06-23T09:14:12.943Z,96158.00
2018-06-23T09:16:44.107Z,96165.00
2018-06-23T09:19:15.335Z,96172.00
2018-06-23T09:21:47.661Z,96166.00
2018-06-23T09:24:21.340Z,96173.00
2018-06-23T09:26:52.846Z,96178.00
2018-06-23T09:29:23.978Z,96174.00
2018-06-23T09:31:55.538Z,96186.00
2018-06-23T09:34:27.301Z,96184.00
2018-06-23T09:36:58.855Z,96183.00
2018-06-23T09:39:30.119Z,96179.00
2018-06-23T09:42:01.275Z,96179.00
2018-06-23T09:44:32.509Z,96184.00
2018-06-23T09:47:03.662Z,96186.00
2018-06-23T09:49:34.778Z,96176.00
2018-06-23T09:52:05.817Z,96182.00
2018-06-23T09:54:37.901Z,96178.00
2018-06-23T09:57:09.727Z,96179.00
2018-06-23T09:59:42.988Z,96174.00
2018-06-23T10:02:14.158Z,96176.00
2018-06-23T10:04:50.858Z,96167.00
2018-06-23T10:07:32.116Z,96169.00
2018-06-23T10:10:03.836Z,96165.00
2018-06-23T10:12:35.075Z,96165.00
2018-06-23T10:15:06.237Z,96165.00
2018-06-23T10:17:37.528Z,96165.00
2018-06-23T10:20:08.769Z,96165.00
2018-06-23T10:22:40.017Z,96162.00
2018-06-23T10:25:11.283Z,96164.00
2018-06-23T10:27:42.585Z,96159.00
2018-06-23T10:30:13.849Z,96159.00
2018-06-23T10:32:44.986Z,96155.00
2018-06-23T10:35:16.327Z,96159.00
2018-06-23T10:37:47.463Z,96163.00
2018-06-23T10:40:18.532Z,96167.00
2018-06-23T10:42:49.958Z,96158.00
2018-06-23T10:45:22.351Z,96165.00
2018-06-23T10:47:53.423Z,96156.00
2018-06-23T10:50:24.712Z,96156.00
2018-06-23T10:52:55.750Z,96157.00
2018-06-23T10:55:26.761Z,96162.00
2018-06-23T10:57:58.380Z,96163.00
2018-06-23T11:00:29.638Z,96165.00
2018-06-23T11:03:00.895Z,96174.00
2018-06-23T11:05:32.104Z,96169.00
2018-06-23T11:08:05.100Z,96168.00
2018-06-23T11:10:36.499Z,96173.00
2018-06-23T11:13:08.118Z,96166.00
2018-06-23T11:15:39.417Z,96169.00
2018-06-23T11:18:10.601Z,96172.00
2018-06-23T11:20:41.963Z,96174.00
2018-06-23T11:23:13.050Z,96177.00
2018-06-23T11:25:44.816Z,96163.00
2018-06-23T11:28:16.245Z,96171.00
2018-06-23T11:30:48.170Z,96175.00
2018-06-23T11:33:20.973Z,96165.00
2018-06-23T11:35:52.552Z,96170.00
2018-06-23T11:38:23.750Z,96168.00
2018-06-23T11:40:55.277Z,96165.00
2018-06-23T11:43:27.655Z,96165.00
2018-06-23T11:45:58.974Z,96167.00
2018-06-23T11:48:30.091Z,96173.00
2018-06-23T11:51:01.351Z,96164.00
2018-06-23T11:53:32.627Z,96166.00
2018-06-23T11:56:03.767Z,96171.00
2018-06-23T11:58:35.512Z,96160.00
2018-06-23T12:01:07.440Z,96159.00
2018-06-23T12:03:38.765Z,96157.00
2018-06-23T12:06:10.163Z,96160.00
2018-06-23T12:08:42.660Z,96157.00
2018-06-23T12:11:14.021Z,96155.00
2018-06-23T12:13:45.664Z,96157.00
2018-06-23T12:16:19.171Z,96154.00
2018-06-23T12:18:56.280Z,96156.00
2018-06-23T12:21:28.217Z,96147.00
2018-06-23T12:24:08.386Z,96145.00
2018-06-23T12:26:49.458Z,96141.00
2018-06-23T12:29:24.784Z,96137.00
2018-06-23T12:31:56.681Z,96140.00
2018-06-23T12:34:28.283Z,96139.00
2018-06-23T12:36:59.621Z,96138.00
2018-06-23T12:39:30.796Z,96134.00
2018-06-23T12:42:03.642Z,96143.00
2018-06-23T12:44:42.434Z,96141.00
2018-06-23T12:47:16.886Z,96145.00
2018-06-23T12:49:51.000Z,96149.00
2018-06-23T12:52:23.393Z,96143.00
2018-06-23T12:54:54.749Z,96146.00
2018-06-23T12:57:26.132Z,96144.00
2018-06-23T12:59:57.845Z,96142.00
2018-06-23T13:02:29.226Z,96146.00
2018-06-23T13:05:00.719Z,96146.00
2018-06-23T13:07:32.293Z,96149.00
2018-06-23T13:10:04.180Z,96151.00
2018-06-23T13:12:35.601Z,96148.00
2018-06-23T13:15:07.336Z,96138.00
2018-06-23T13:17:38.800Z,96137.00
2018-06-23T13:20:10.386Z,96141.00
2018-06-23T13:22:42.049Z,96135.00
2018-06-23T13:25:13.354Z,96135.00
2018-06-23T13:27:44.701Z,96135.00
2018-06-23T13:30:16.325Z,96134.00
2018-06-23T13:32:48.148Z,96131.00
2018-06-23T13:35:20.577Z,96121.00
2018-06-23T13:37:55.093Z,96120.00
2018-06-23T13:43:17.116Z,96117.00
2018-06-23T13:45:51.128Z,96114.00
2018-06-23T13:48:22.474Z,96116.00
2018-06-23T13:50:53.673Z,96113.00
2018-06-23T13:53:25.067Z,96112.00
2018-06-23T13:55:56.822Z,96107.00
2018-06-23T13:58:28.578Z,96111.00
2018-06-23T14:00:59.906Z,96115.00
2018-06-23T14:03:31.712Z,96110.00
2018-06-23T14:06:03.319Z,96117.00
2018-06-23T14:08:34.703Z,96117.00
2018-06-23T14:11:05.966Z,96121.00
2018-06-23T14:13:37.375Z,96116.00
2018-06-23T14:16:08.707Z,96114.00
2018-06-23T14:18:40.022Z,96131.00
2018-06-23T14:21:11.175Z,96146.00
2018-06-23T14:23:42.559Z,96140.00
2018-06-23T14:26:14.314Z,96150.00
2018-06-23T14:28:47.673Z,96141.00
2018-06-23T14:31:19.659Z,96150.00
2018-06-23T14:33:51.007Z,96138.00
2018-06-23T14:36:22.245Z,96132.00
2018-06-23T14:38:53.718Z,96125.00
2018-06-23T14:41:26.987Z,96123.00
2018-06-23T14:43:58.307Z,96121.00
2018-06-23T14:46:29.534Z,96121.00
2018-06-23T14:49:01.679Z,96116.00
2018-06-23T14:51:33.679Z,96115.00
2018-06-23T14:54:05.135Z,96117.00
2018-06-23T14:56:38.797Z,96114.00
2018-06-23T14:59:12.478Z,96114.00
2018-06-23T15:01:43.592Z,96113.00
2018-06-23T15:04:14.844Z,96105.00
2018-06-23T15:06:46.539Z,96108.00
2018-06-23T15:09:28.494Z,96108.00
2018-06-23T15:12:10.578Z,96114.00
2018-06-23T15:14:42.071Z,96117.00
2018-06-23T15:17:13.947Z,96120.00
2018-06-23T15:19:46.670Z,96118.00
2018-06-23T15:22:18.136Z,96113.00
2018-06-23T15:24:49.731Z,96113.00
2018-06-23T15:27:22.372Z,96122.00
2018-06-23T15:29:54.107Z,96123.00
2018-06-23T15:32:25.933Z,96123.00
2018-06-23T15:34:57.961Z,96121.00
2018-06-23T15:37:30.630Z,96123.00
2018-06-23T15:40:01.938Z,96122.00
2018-06-23T15:42:33.689Z,96127.00
2018-06-23T15:45:04.886Z,96119.00
2018-06-23T15:47:36.504Z,96124.00
2018-06-23T15:50:07.753Z,96126.00
2018-06-23T15:52:39.442Z,96126.00
2018-06-23T15:55:10.990Z,96127.00
2018-06-23T15:57:42.660Z,96126.00
2018-06-23T16:00:14.130Z,96123.00
2018-06-23T16:02:45.596Z,96120.00
2018-06-23T16:05:16.990Z,96122.00
2018-06-23T16:07:48.526Z,96118.00
2018-06-23T16:10:23.568Z,96118.00
2018-06-23T16:12:55.980Z,96114.00
2018-06-23T16:15:27.532Z,96117.00
2018-06-23T16:17:59.143Z,96112.00
2018-06-23T16:20:30.349Z,96104.00
2018-06-23T16:23:01.778Z,96102.00
2018-06-23T16:25:33.232Z,96103.00
2018-06-23T16:28:05.097Z,96108.00
2018-06-23T16:30:36.392Z,96107.00
2018-06-23T16:33:08.341Z,96106.00
2018-06-23T16:35:40.052Z,96111.00
2018-06-23T16:38:12.145Z,96108.00
2018-06-23T16:40:43.566Z,96102.00
2018-06-23T16:43:15.175Z,96096.00
2018-06-23T16:45:46.590Z,96100.00
2018-06-23T16:48:21.633Z,96096.00
2018-06-23T16:50:52.784Z,96095.00
2018-06-23T16:53:25.478Z,96096.00
2018-06-23T16:55:59.277Z,96088.00
2018-06-23T16:58:33.115Z,96090.00
2018-06-23T17:01:04.826Z,96089.00
2018-06-23T17:03:36.413Z,96084.00
2018-06-23T17:06:07.528Z,96093.00
2018-06-23T17:08:38.963Z,96087.00
2018-06-23T17:11:10.409Z,96087.00
2018-06-23T17:13:42.151Z,96093.00
2018-06-23T17:16:13.652Z,96095.00
2018-06-23T17:18:46.724Z,96095.00
2018-06-23T17:21:18.863Z,96086.00
2018-06-23T17:23:50.433Z,96084.00
2018-06-23T17:26:22.834Z,96081.00
2018-06-23T17:28:54.500Z,96084.00
2018-06-23T17:31:26.118Z,96085.00
2018-06-23T17:33:57.923Z,96084.00
2018-06-23T17:36:29.144Z,96080.00
2018-06-23T17:39:00.249Z,96081.00
2018-06-23T17:41:31.752Z,96078.00
2018-06-23T17:44:04.895Z,96085.00
2018-06-23T17:46:36.189Z,96084.00
2018-06-23T17:49:07.576Z,96086.00
2018-06-23T17:51:38.929Z,96080.00
2018-06-23T17:54:10.551Z,96077.00
2018-06-23T17:56:42.569Z,96081.00
2018-06-23T17:59:14.322Z,96085.00
2018-06-23T18:01:45.658Z,96083.00
2018-06-23T18:04:17.234Z,96078.00
2018-06-23T18:06:48.770Z,96081.00
2018-06-23T18:09:20.085Z,96079.00
2018-06-23T18:11:51.729Z,96079.00
2018-06-23T18:14:22.919Z,96079.00
2018-06-23T18:16:54.293Z,96081.00
2018-06-23T18:19:26.432Z,96077.00
2018-06-23T18:21:57.758Z,96077.00
2018-06-23T18:24:29.517Z,96071.00
2018-06-23T18:27:00.914Z,96071.00
2018-06-23T18:29:32.344Z,96072.00
2018-06-23T18:32:03.574Z,96072.00
2018-06-23T18:34:35.368Z,96074.00
2018-06-23T18:37:16.792Z,96078.00
2018-06-23T18:39:48.843Z,96074.00
2018-06-23T18:42:20.456Z,96071.00
2018-06-23T18:44:52.113Z,96074.00
2018-06-23T18:47:23.466Z,96077.00
2018-06-23T18:49:59.914Z,96073.00
2018-06-23T18:52:32.036Z,96074.00
2018-06-23T18:55:04.660Z,96072.00
2018-06-23T18:57:36.227Z,96073.00
2018-06-23T19:00:09.265Z,96074.00
2018-06-23T19:02:40.924Z,96072.00
2018-06-23T19:05:12.644Z,96078.00
2018-06-23T19:07:43.966Z,96076.00
2018-06-23T19:10:15.380Z,96075.00
2018-06-23T19:12:47.211Z,96076.00
2018-06-23T19:15:18.622Z,96073.00
2018-06-23T19:17:50.018Z,96072.00
2018-06-23T19:20:22.131Z,96072.00
2018-06-23T19:22:53.691Z,96076.00
2018-06-23T19:25:25.118Z,96079.00
2018-06-23T19:27:57.131Z,96079.00
2018-06-23T19:30:28.863Z,96081.00
2018-06-23T19:33:00.559Z,96085.00
2018-06-23T19:35:32.230Z,96088.00
2018-06-23T19:38:03.784Z,96089.00
2018-06-23T19:40:35.194Z,96093.00
2018-06-23T19:43:06.648Z,96096.00
2018-06-23T19:45:37.928Z,96097.00
2018-06-23T19:48:09.514Z,96100.00
2018-06-23T19:50:40.963Z,96098.00
2018-06-23T19:53:12.433Z,96100.00
2018-06-23T19:55:43.825Z,96099.00
2018-06-23T19:58:15.274Z,96101.00
2018-06-23T20:00:47.342Z,96095.00
2018-06-23T20:03:19.278Z,96099.00
2018-06-23T20:05:50.473Z,96104.00
2018-06-23T20:08:21.889Z,96103.00
2018-06-23T20:10:54.205Z,96107.00
2018-06-23T20:13:26.600Z,96107.00
2018-06-23T20:15:58.324Z,96108.00
2018-06-23T20:18:29.683Z,96108.00
2018-06-23T20:21:01.073Z,96099.00
2018-06-23T20:23:32.520Z,96101.00
2018-06-23T20:26:03.901Z,96106.00
2018-06-23T20:28:35.144Z,96106.00
2018-06-23T20:31:06.468Z,96105.00
2018-06-23T20:33:37.769Z,96104.00
2018-06-23T20:36:09.042Z,96106.00
2018-06-23T20:38:40.395Z,96105.00
2018-06-23T20:41:11.629Z,96105.00
2018-06-23T20:43:42.792Z,96106.00
2018-06-23T20:46:15.199Z,96109.00
2018-06-23T20:48:46.528Z,96109.00
2018-06-23T20:51:18.481Z,96119.00
2018-06-23T20:53:49.693Z,96120.00
2018-06-23T20:56:21.029Z,96112.00
2018-06-23T20:58:52.402Z,96110.00
2018-06-23T21:01:23.769Z,96112.00
2018-06-23T21:03:55.148Z,96109.00
2018-06-23T21:06:26.402Z,96107.00
2018-06-23T21:08:57.648Z,96112.00
2018-06-23T21:11:29.907Z,96107.00
2018-06-23T21:14:01.506Z,96112.00
2018-06-23T21:16:32.910Z,96110.00
2018-06-23T21:19:04.086Z,96111.00
2018-06-23T21:21:35.492Z,96108.00
2018-06-23T21:24:06.908Z,96103.00
2018-06-23T21:26:37.944Z,96106.00
2018-06-23T21:29:09.304Z,96114.00
2018-06-23T21:31:40.420Z,96110.00
2018-06-23T21:34:11.659Z,96107.00
2018-06-23T21:36:42.958Z,96107.00
2018-06-23T21:39:14.223Z,96113.00
2018-06-23T21:41:45.733Z,96111.00
2018-06-23T21:44:16.895Z,96105.00
2018-06-23T21:46:48.237Z,96102.00
2018-06-23T21:49:19.719Z,96099.00
2018-06-23T21:51:50.738Z,96100.00
2018-06-23T21:54:22.100Z,96098.00
2018-06-23T21:56:53.326Z,96104.00
2018-06-23T21:59:24.727Z,96098.00
2018-06-23T22:01:55.997Z,96100.00
2018-06-23T22:04:27.473Z,96096.00
2018-06-23T22:06:58.559Z,96095.00
2018-06-23T22:09:29.846Z,96100.00
2018-06-23T22:12:01.115Z,96094.00
2018-06-23T22:14:32.726Z,96089.00
2018-06-23T22:17:04.151Z,96088.00
2018-06-23T22:19:35.630Z,96083.00
2018-06-23T22:22:06.922Z,96082.00
2018-06-23T22:24:38.350Z,96079.00
2018-06-23T22:27:09.450Z,96076.00
2018-06-23T22:29:40.595Z,96080.00
2018-06-23T22:32:11.839Z,96079.00
2018-06-23T22:34:42.979Z,96079.00
2018-06-23T22:37:14.113Z,96077.00
2018-06-23T22:39:45.654Z,96075.00
2018-06-23T22:42:16.923Z,96077.00
2018-06-23T22:44:48.420Z,96074.00
2018-06-23T22:47:20.139Z,96077.00
2018-06-23T22:49:51.435Z,96071.00
2018-06-23T22:52:22.914Z,96070.00
2018-06-23T22:54:53.969Z,96071.00
2018-06-23T22:57:25.409Z,96069.00
2018-06-23T22:59:56.966Z,96066.00
2018-06-23T23:02:28.239Z,96062.00
2018-06-23T23:04:59.672Z,96062.00
2018-06-23T23:07:30.750Z,96057.00
2018-06-23T23:10:01.880Z,96060.00
2018-06-23T23:12:33.148Z,96053.00
2018-06-23T23:15:05.245Z,96049.00
2018-06-23T23:17:36.349Z,96045.00
2018-06-23T23:20:07.790Z,96045.00
2018-06-23T23:22:39.093Z,96048.00
2018-06-23T23:25:10.288Z,96050.00
2018-06-23T23:27:41.555Z,96043.00
2018-06-23T23:30:13.189Z,96047.00
2018-06-23T23:32:44.572Z,96042.00
2018-06-23T23:35:15.815Z,96044.00
2018-06-23T23:37:47.107Z,96045.00
2018-06-23T23:40:18.416Z,96042.00
2018-06-23T23:42:49.753Z,96048.00
2018-06-23T23:45:21.290Z,96046.00
2018-06-23T23:47:52.530Z,96044.00
2018-06-23T23:50:23.973Z,96042.00
2018-06-23T23:52:55.726Z,96046.00
2018-06-23T23:55:27.007Z,96049.00
2018-06-23T23:57:58.409Z,96052.00
